createdAt,value
2023-12-16T00:02:23.145Z,1.43
2023-12-16T00:04:52.356Z,1.30
2023-12-16T00:07:20.165Z,2.00
2023-12-16T00:09:48.790Z,2.07
2023-12-16T00:12:17.008Z,1.97
2023-12-16T00:14:45.229Z,2.17
2023-12-16T00:17:13.159Z,2.03
2023-12-16T00:19:40.949Z,3.13
2023-12-16T00:22:09.996Z,2.13
2023-12-16T00:24:37.741Z,3.03
2023-12-16T00:27:05.884Z,2.43
2023-12-16T00:29:33.560Z,2.60
2023-12-16T00:32:02.893Z,2.70
2023-12-16T00:34:31.062Z,1.63
2023-12-16T00:36:58.919Z,2.50
2023-12-16T00:39:28.000Z,2.60
2023-12-16T00:41:55.737Z,2.17
2023-12-16T00:44:23.365Z,2.57
2023-12-16T00:46:51.787Z,2.70
2023-12-16T00:49:19.635Z,2.40
2023-12-16T00:51:47.488Z,2.87
2023-12-16T00:54:15.171Z,2.10
2023-12-16T00:56:44.256Z,2.50
2023-12-16T00:59:11.966Z,2.40
2023-12-16T01:01:39.752Z,2.27
2023-12-16T01:04:08.040Z,3.10
2023-12-16T01:06:35.732Z,2.47
2023-12-16T01:09:04.215Z,2.83
2023-12-16T01:11:31.875Z,2.50
2023-12-16T01:14:01.092Z,2.53
2023-12-16T01:16:29.038Z,2.20
2023-12-16T01:18:56.979Z,2.50
2023-12-16T01:21:24.847Z,2.60
2023-12-16T01:23:52.791Z,3.03
2023-12-16T01:26:20.527Z,2.03
2023-12-16T01:28:48.192Z,2.80
2023-12-16T01:31:17.305Z,1.80
2023-12-16T01:33:45.086Z,2.57
2023-12-16T01:36:12.753Z,2.33
2023-12-16T01:38:40.836Z,2.27
2023-12-16T01:41:08.506Z,2.57
2023-12-16T01:43:36.214Z,2.73
2023-12-16T01:46:06.774Z,2.37
2023-12-16T01:48:36.471Z,1.73
2023-12-16T01:51:04.633Z,2.40
2023-12-16T01:53:33.979Z,3.17
2023-12-16T01:56:02.193Z,3.07
2023-12-16T01:58:30.121Z,1.83
2023-12-16T02:00:57.944Z,1.37
2023-12-16T02:03:27.618Z,2.20
2023-12-16T02:05:57.023Z,1.27
2023-12-16T02:08:25.686Z,1.80
2023-12-16T02:10:53.501Z,2.83
2023-12-16T02:13:24.300Z,2.37
2023-12-16T02:15:52.459Z,1.97
2023-12-16T02:18:20.441Z,2.30
2023-12-16T02:20:48.307Z,2.20
2023-12-16T02:23:20.298Z,2.13
2023-12-16T02:25:48.062Z,2.20
2023-12-16T02:28:16.024Z,2.07
2023-12-16T02:30:43.812Z,1.87
2023-12-16T02:33:11.553Z,1.70
2023-12-16T02:35:39.263Z,1.60
2023-12-16T02:38:06.946Z,2.30
2023-12-16T02:40:40.092Z,2.33
2023-12-16T02:43:07.915Z,1.20
2023-12-16T02:45:35.586Z,1.10
2023-12-16T02:48:03.439Z,1.80
2023-12-16T02:50:31.138Z,2.40
2023-12-16T02:52:59.220Z,1.63
2023-12-16T02:55:26.941Z,1.23
2023-12-16T02:57:56.030Z,2.53
2023-12-16T03:00:23.652Z,2.00
2023-12-16T03:02:51.587Z,1.83
2023-12-16T03:05:19.409Z,1.57
2023-12-16T03:07:47.097Z,1.90
2023-12-16T03:10:15.134Z,2.07
2023-12-16T03:12:42.870Z,1.57
2023-12-16T03:15:12.287Z,1.33
2023-12-16T03:17:40.496Z,1.57
2023-12-16T03:20:10.002Z,1.57
2023-12-16T03:22:37.874Z,2.30
2023-12-16T03:25:06.213Z,1.53
2023-12-16T03:27:33.917Z,1.27
2023-12-16T03:30:01.604Z,2.17
2023-12-16T03:32:30.676Z,1.07
2023-12-16T03:34:58.406Z,1.13
2023-12-16T03:37:26.198Z,1.47
2023-12-16T03:39:54.642Z,1.57
2023-12-16T03:42:22.433Z,0.90
2023-12-16T03:44:50.156Z,0.77
2023-12-16T03:47:17.840Z,1.80
2023-12-16T03:49:47.054Z,1.20
2023-12-16T03:52:14.893Z,1.23
2023-12-16T03:54:42.692Z,1.47
2023-12-16T03:57:10.366Z,0.93
2023-12-16T03:59:38.137Z,1.23
2023-12-16T04:02:06.095Z,1.27
2023-12-16T04:04:35.109Z,1.57
2023-12-16T04:07:04.278Z,1.13
2023-12-16T04:09:32.336Z,1.17
2023-12-16T04:12:00.038Z,1.27
2023-12-16T04:14:27.830Z,1.00
2023-12-16T04:16:55.586Z,1.00
2023-12-16T04:19:23.301Z,0.87
2023-12-16T04:21:51.068Z,1.53
2023-12-16T04:24:20.087Z,1.97
2023-12-16T04:26:47.748Z,1.57
2023-12-16T04:29:15.437Z,1.27
2023-12-16T04:31:43.345Z,0.90
2023-12-16T04:34:11.196Z,1.30
2023-12-16T04:36:38.936Z,1.80
2023-12-16T04:39:08.790Z,1.03
2023-12-16T04:41:37.848Z,0.93
2023-12-16T04:44:06.221Z,1.30
2023-12-16T04:46:33.929Z,0.80
2023-12-16T04:49:01.708Z,1.47
2023-12-16T04:51:29.555Z,1.07
2023-12-16T04:53:58.309Z,1.30
2023-12-16T04:56:25.963Z,1.10
2023-12-16T04:58:55.106Z,0.60
2023-12-16T05:01:22.894Z,1.43
2023-12-16T05:03:50.656Z,0.93
2023-12-16T05:06:18.580Z,1.27
2023-12-16T05:08:46.308Z,1.40
2023-12-16T05:11:13.991Z,0.90
2023-12-16T05:13:41.630Z,1.60
2023-12-16T05:16:10.738Z,1.80
2023-12-16T05:18:38.564Z,0.70
2023-12-16T05:21:06.881Z,2.00
2023-12-16T05:23:34.541Z,1.47
2023-12-16T05:26:02.228Z,0.80
2023-12-16T05:28:29.933Z,1.90
2023-12-16T05:30:57.693Z,1.27
2023-12-16T05:33:26.908Z,1.23
2023-12-16T05:35:54.742Z,0.97
2023-12-16T05:38:22.440Z,0.90
2023-12-16T05:40:50.082Z,1.60
2023-12-16T05:43:17.756Z,1.20
2023-12-16T05:45:45.543Z,1.27
2023-12-16T05:48:13.285Z,1.40
2023-12-16T05:50:42.357Z,1.73
2023-12-16T05:53:10.038Z,1.67
2023-12-16T05:55:37.779Z,1.90
2023-12-16T05:58:05.588Z,1.63
2023-12-16T06:00:33.605Z,1.47
2023-12-16T06:03:01.343Z,1.13
2023-12-16T06:05:29.258Z,0.93
2023-12-16T06:07:58.301Z,1.17
2023-12-16T06:10:26.012Z,1.17
2023-12-16T06:12:55.650Z,1.30
2023-12-16T06:15:23.348Z,1.40
2023-12-16T06:17:51.127Z,1.37
2023-12-16T06:20:18.996Z,0.80
2023-12-16T06:22:46.652Z,1.20
2023-12-16T06:25:15.789Z,0.80
2023-12-16T06:27:45.188Z,1.53
2023-12-16T06:30:14.738Z,1.87
2023-12-16T06:32:42.525Z,0.97
2023-12-16T06:35:10.626Z,1.43
2023-12-16T06:37:38.718Z,1.67
2023-12-16T06:40:08.658Z,1.00
2023-12-16T06:42:37.827Z,1.40
2023-12-16T06:45:06.855Z,1.23
2023-12-16T06:47:34.610Z,1.07
2023-12-16T06:50:02.718Z,1.20
2023-12-16T06:52:30.528Z,1.27
2023-12-16T06:54:58.185Z,2.27
2023-12-16T06:57:25.851Z,1.00
2023-12-16T06:59:54.992Z,1.33
2023-12-16T07:02:22.659Z,1.47
2023-12-16T07:04:50.381Z,1.33
2023-12-16T07:07:18.102Z,1.23
2023-12-16T07:09:45.806Z,1.00
2023-12-16T07:12:13.549Z,1.70
2023-12-16T07:14:42.247Z,1.67
2023-12-16T07:17:11.403Z,1.60
2023-12-16T07:19:39.247Z,1.17
2023-12-16T07:22:07.288Z,1.80
2023-12-16T07:24:34.968Z,1.53
2023-12-16T07:27:02.625Z,1.17
2023-12-16T07:29:30.277Z,1.33
2023-12-16T07:31:58.098Z,1.80
2023-12-16T07:34:27.452Z,2.07
2023-12-16T07:36:55.300Z,1.83
2023-12-16T07:39:23.051Z,1.83
2023-12-16T07:41:50.696Z,1.07
2023-12-16T07:44:18.407Z,1.57
2023-12-16T07:46:46.634Z,2.00
2023-12-16T07:49:14.945Z,1.13
2023-12-16T07:51:44.328Z,2.07
2023-12-16T07:54:12.466Z,0.97
2023-12-16T07:56:40.158Z,1.50
2023-12-16T07:59:08.955Z,1.37
2023-12-16T08:01:37.037Z,1.73
2023-12-16T08:04:04.852Z,1.13
2023-12-16T08:06:34.379Z,1.50
2023-12-16T08:09:04.288Z,1.67
2023-12-16T08:11:31.979Z,1.43
2023-12-16T08:13:59.645Z,1.00
2023-12-16T08:16:27.364Z,1.43
2023-12-16T08:18:55.194Z,1.60
2023-12-16T08:21:23.033Z,1.40
2023-12-16T08:23:50.696Z,1.23
2023-12-16T08:26:19.742Z,1.30
2023-12-16T08:28:47.392Z,1.00
2023-12-16T08:31:15.168Z,1.50
2023-12-16T08:33:43.046Z,0.83
2023-12-16T08:36:10.876Z,1.30
2023-12-16T08:38:40.008Z,0.70
2023-12-16T08:41:09.284Z,1.43
2023-12-16T08:43:38.607Z,1.03
2023-12-16T08:46:07.271Z,1.80
2023-12-16T08:48:35.278Z,1.17
2023-12-16T08:51:03.166Z,1.53
2023-12-16T08:53:30.844Z,1.00
2023-12-16T08:55:58.554Z,1.67
2023-12-16T08:58:26.333Z,1.10
2023-12-16T09:00:56.958Z,1.20
2023-12-16T09:03:24.711Z,1.97
2023-12-16T09:05:52.445Z,1.10
2023-12-16T09:08:20.217Z,1.50
2023-12-16T09:10:47.978Z,1.40
2023-12-16T09:13:15.673Z,2.00
2023-12-16T09:15:43.490Z,0.93
2023-12-16T09:18:13.257Z,1.30
2023-12-16T09:20:41.768Z,2.10
2023-12-16T09:23:09.843Z,1.53
2023-12-16T09:25:37.534Z,1.73
2023-12-16T09:28:05.401Z,1.40
2023-12-16T09:30:33.194Z,1.40
2023-12-16T09:33:01.508Z,1.10
2023-12-16T09:35:30.570Z,1.13
2023-12-16T09:37:58.355Z,0.97
2023-12-16T09:40:26.206Z,1.70
2023-12-16T09:43:00.749Z,1.50
2023-12-16T09:45:28.541Z,1.20
2023-12-16T09:47:57.005Z,1.67
2023-12-16T09:50:24.843Z,0.83
2023-12-16T09:52:53.865Z,1.23
2023-12-16T09:55:21.662Z,1.20
2023-12-16T09:57:50.859Z,1.63
2023-12-16T10:00:19.754Z,1.23
2023-12-16T10:02:51.796Z,1.30
2023-12-16T10:05:20.801Z,0.80
2023-12-16T10:07:48.582Z,1.23
2023-12-16T10:10:17.643Z,1.50
2023-12-16T10:12:45.487Z,1.33
2023-12-16T10:15:13.175Z,0.90
2023-12-16T10:17:41.113Z,2.23
2023-12-16T10:20:09.734Z,1.00
2023-12-16T10:22:37.610Z,1.37
2023-12-16T10:25:06.158Z,1.07
2023-12-16T10:27:36.873Z,1.73
2023-12-16T10:30:09.595Z,0.60
2023-12-16T10:32:41.063Z,1.57
2023-12-16T10:35:09.762Z,1.10
2023-12-16T10:37:50.578Z,1.27
2023-12-16T10:40:19.830Z,1.27
2023-12-16T10:42:48.904Z,1.80
2023-12-16T10:45:16.685Z,1.80
2023-12-16T10:47:45.291Z,1.03
2023-12-16T10:50:14.509Z,1.00
2023-12-16T10:52:47.374Z,1.17
2023-12-16T10:55:24.383Z,1.23
2023-12-16T10:58:02.451Z,1.17
2023-12-16T11:00:34.368Z,1.70
2023-12-16T11:03:06.483Z,1.10
2023-12-16T11:05:37.625Z,1.30
2023-12-16T11:08:06.299Z,2.37
2023-12-16T11:10:34.525Z,1.33
2023-12-16T11:13:05.617Z,0.87
2023-12-16T11:15:34.981Z,0.60
2023-12-16T11:18:08.674Z,0.80
2023-12-16T11:20:41.147Z,0.87
2023-12-16T11:23:10.879Z,1.20
2023-12-16T11:25:38.942Z,0.90
2023-12-16T11:28:08.173Z,1.30
2023-12-16T11:30:36.027Z,1.80
2023-12-16T11:33:05.279Z,1.17
2023-12-16T11:35:48.719Z,1.53
2023-12-16T11:38:38.605Z,1.17
2023-12-16T11:41:06.709Z,1.50
2023-12-16T11:43:53.108Z,0.80
2023-12-16T11:46:39.633Z,1.13
2023-12-16T11:49:11.652Z,0.87
2023-12-16T11:51:40.891Z,1.10
2023-12-16T11:54:11.488Z,0.90
2023-12-16T11:56:39.596Z,1.93
2023-12-16T11:59:09.821Z,0.97
2023-12-16T12:01:37.838Z,1.10
2023-12-16T12:04:06.886Z,1.83
2023-12-16T12:06:34.808Z,1.50
2023-12-16T12:09:02.491Z,1.30
2023-12-16T12:11:30.217Z,1.30
2023-12-16T12:13:58.193Z,1.10
2023-12-16T12:16:30.336Z,1.43
2023-12-16T12:18:58.730Z,1.10
2023-12-16T12:21:26.512Z,1.27
2023-12-16T12:23:54.218Z,1.17
2023-12-16T12:26:22.317Z,1.23
2023-12-16T12:29:02.713Z,1.77
2023-12-16T12:31:32.937Z,1.23
2023-12-16T12:34:00.916Z,1.47
2023-12-16T12:36:30.592Z,0.97
2023-12-16T12:38:58.322Z,1.70
2023-12-16T12:41:25.984Z,1.23
2023-12-16T12:43:54.045Z,1.23
2023-12-16T12:46:23.180Z,1.97
2023-12-16T12:48:57.243Z,1.47
2023-12-16T12:51:26.961Z,0.77
2023-12-16T12:53:59.997Z,1.80
2023-12-16T12:56:30.103Z,1.77
2023-12-16T12:58:58.329Z,1.53
2023-12-16T13:01:26.367Z,1.37
2023-12-16T13:03:56.023Z,1.60
2023-12-16T13:06:24.165Z,1.33
2023-12-16T13:08:53.011Z,1.40
2023-12-16T13:11:20.735Z,1.50
2023-12-16T13:13:49.689Z,2.27
2023-12-16T13:16:17.428Z,1.50
2023-12-16T13:18:46.038Z,1.87
2023-12-16T13:21:14.287Z,2.03
2023-12-16T13:23:42.163Z,1.37
2023-12-16T13:26:12.699Z,1.30
2023-12-16T13:28:41.612Z,2.43
2023-12-16T13:31:09.481Z,1.73
2023-12-16T13:33:37.500Z,1.80
2023-12-16T13:36:32.523Z,1.60
2023-12-16T13:38:56.578Z,1.97
2023-12-16T13:41:24.314Z,2.03
2023-12-16T13:43:51.990Z,2.80
2023-12-16T13:46:19.704Z,1.83
2023-12-16T13:48:47.916Z,1.43
2023-12-16T13:51:15.697Z,1.50
2023-12-16T13:53:43.404Z,2.37
2023-12-16T13:56:12.781Z,1.70
2023-12-16T13:58:40.679Z,1.90
2023-12-16T14:01:08.452Z,2.70
2023-12-16T14:03:36.298Z,1.70
2023-12-16T14:06:04.692Z,1.77
2023-12-16T14:08:32.786Z,1.80
2023-12-16T14:11:00.561Z,2.13
2023-12-16T14:13:29.597Z,1.77
2023-12-16T14:15:57.293Z,2.03
2023-12-16T14:18:25.114Z,1.73
2023-12-16T14:20:52.949Z,2.03
2023-12-16T14:23:20.699Z,1.97
2023-12-16T14:25:48.365Z,2.37
2023-12-16T14:28:16.073Z,2.53
2023-12-16T14:30:45.088Z,1.63
2023-12-16T14:33:13.112Z,1.83
2023-12-16T14:35:40.881Z,2.77
2023-12-16T14:38:08.598Z,2.23
2023-12-16T14:40:36.252Z,2.20
2023-12-16T14:43:03.938Z,2.97
2023-12-16T14:45:31.654Z,2.40
2023-12-16T14:48:00.763Z,2.13
2023-12-16T14:50:28.614Z,1.43
2023-12-16T14:52:56.279Z,1.33
2023-12-16T14:55:25.208Z,2.00
2023-12-16T14:57:52.892Z,1.53
2023-12-16T15:00:22.133Z,2.00
2023-12-16T15:02:49.919Z,2.93
2023-12-16T15:05:18.967Z,2.10
2023-12-16T15:07:46.812Z,1.73
2023-12-16T15:10:14.738Z,2.00
2023-12-16T15:12:42.790Z,1.80
2023-12-16T15:15:11.548Z,1.93
2023-12-16T15:17:39.659Z,1.87
2023-12-16T15:20:09.638Z,2.03
2023-12-16T15:22:38.981Z,1.67
2023-12-16T15:25:07.218Z,2.10
2023-12-16T15:27:34.904Z,2.00
2023-12-16T15:30:06.149Z,1.43
2023-12-16T15:32:33.955Z,1.30
2023-12-16T15:35:01.983Z,2.33
2023-12-16T15:37:29.702Z,1.87
2023-12-16T15:40:00.771Z,2.17
2023-12-16T15:42:28.449Z,2.23
2023-12-16T15:44:56.245Z,1.87
2023-12-16T15:47:26.549Z,2.20
2023-12-16T15:49:55.043Z,1.70
2023-12-16T15:52:22.852Z,2.10
2023-12-16T15:54:50.530Z,2.10
2023-12-16T15:57:20.451Z,2.13
2023-12-16T15:59:48.193Z,1.83
2023-12-16T16:02:15.896Z,2.13
2023-12-16T16:04:43.545Z,1.93
2023-12-16T16:07:11.230Z,2.17
2023-12-16T16:09:38.878Z,1.97
2023-12-16T16:12:07.412Z,2.30
2023-12-16T16:14:37.092Z,2.23
2023-12-16T16:17:05.198Z,2.27
2023-12-16T16:19:32.937Z,1.97
2023-12-16T16:22:00.910Z,2.23
2023-12-16T16:24:28.574Z,2.80
2023-12-16T16:26:56.314Z,1.83
2023-12-16T16:29:24.232Z,2.83
2023-12-16T16:31:53.733Z,1.70
2023-12-16T16:34:21.525Z,2.17
2023-12-16T16:36:49.323Z,2.27
2023-12-16T16:39:17.650Z,2.50
2023-12-16T16:41:45.384Z,2.07
2023-12-16T16:44:13.058Z,3.07
2023-12-16T16:46:40.889Z,1.90
2023-12-16T16:49:10.214Z,2.37
2023-12-16T16:51:38.115Z,2.60
2023-12-16T16:54:06.479Z,2.93
2023-12-16T16:56:34.170Z,2.37
2023-12-16T16:59:01.939Z,2.43
2023-12-16T17:01:29.814Z,1.83
2023-12-16T17:03:57.709Z,2.50
2023-12-16T17:06:27.103Z,2.70
2023-12-16T17:08:55.237Z,2.50
2023-12-16T17:11:23.797Z,3.27
2023-12-16T17:13:51.496Z,2.60
2023-12-16T17:16:21.462Z,4.23
2023-12-16T17:18:49.910Z,4.00
2023-12-16T17:21:17.739Z,4.00
2023-12-16T17:23:46.924Z,3.43
2023-12-16T17:26:14.674Z,3.53
2023-12-16T17:28:42.341Z,2.87
2023-12-16T17:31:10.043Z,3.67
2023-12-16T17:33:38.307Z,3.07
2023-12-16T17:36:06.651Z,2.53
2023-12-16T17:38:34.372Z,2.60
2023-12-16T17:41:03.883Z,3.23
2023-12-16T17:43:31.676Z,3.20
2023-12-16T17:45:59.349Z,2.70
2023-12-16T17:48:27.589Z,3.60
2023-12-16T17:50:55.641Z,2.90
2023-12-16T17:53:24.006Z,3.17
2023-12-16T17:55:51.734Z,3.90
2023-12-16T17:58:21.009Z,3.00
2023-12-16T18:00:48.962Z,3.03
2023-12-16T18:03:17.067Z,3.07
2023-12-16T18:05:44.985Z,4.20
2023-12-16T18:08:12.659Z,3.27
2023-12-16T18:10:40.328Z,4.30
2023-12-16T18:13:09.434Z,3.30
2023-12-16T18:15:42.630Z,3.33
2023-12-16T18:18:10.952Z,2.93
2023-12-16T18:20:59.019Z,2.90
2023-12-16T18:23:29.200Z,3.10
2023-12-16T18:26:01.232Z,3.73
2023-12-16T18:28:30.025Z,3.93
2023-12-16T18:30:59.331Z,4.60
2023-12-16T18:33:27.283Z,3.50
2023-12-16T18:35:55.342Z,3.23
2023-12-16T18:38:24.074Z,3.63
2023-12-16T18:40:51.878Z,3.03
2023-12-16T18:43:19.541Z,3.77
2023-12-16T18:45:47.464Z,4.80
2023-12-16T18:48:16.748Z,4.30
2023-12-16T18:50:49.330Z,3.97
2023-12-16T18:53:17.473Z,4.47
2023-12-16T18:55:45.330Z,3.73
2023-12-16T18:58:13.058Z,4.67
2023-12-16T19:00:40.782Z,4.57
2023-12-16T19:03:08.611Z,3.67
2023-12-16T19:05:37.785Z,3.87
2023-12-16T19:08:05.873Z,4.37
2023-12-16T19:10:33.596Z,5.03
2023-12-16T19:13:01.536Z,4.13
2023-12-16T19:15:30.412Z,4.03
2023-12-16T19:17:58.329Z,4.03
2023-12-16T19:20:26.206Z,3.63
2023-12-16T19:22:55.233Z,6.20
2023-12-16T19:25:22.911Z,3.60
2023-12-16T19:27:50.645Z,4.43
2023-12-16T19:30:18.808Z,4.20
2023-12-16T19:32:46.789Z,4.13
2023-12-16T19:35:14.756Z,3.87
2023-12-16T19:37:42.698Z,4.43
2023-12-16T19:40:12.831Z,3.30
2023-12-16T19:42:40.607Z,3.40
2023-12-16T19:45:09.164Z,3.53
2023-12-16T19:47:37.122Z,3.03
2023-12-16T19:50:05.044Z,2.83
2023-12-16T19:52:32.811Z,3.10
2023-12-16T19:55:00.474Z,3.90
2023-12-16T19:57:29.544Z,2.43
2023-12-16T19:59:57.228Z,3.37
2023-12-16T20:02:24.887Z,2.83
2023-12-16T20:04:52.558Z,3.73
2023-12-16T20:07:20.217Z,3.13
2023-12-16T20:09:47.869Z,3.10
2023-12-16T20:12:16.077Z,3.53
2023-12-16T20:14:45.192Z,3.40
2023-12-16T20:17:12.900Z,2.67
2023-12-16T20:19:40.844Z,3.27
2023-12-16T20:22:09.075Z,3.40
2023-12-16T20:24:36.806Z,3.30
2023-12-16T20:27:04.654Z,2.50
2023-12-16T20:29:32.385Z,2.67
2023-12-16T20:32:01.390Z,3.23
2023-12-16T20:34:29.224Z,3.57
2023-12-16T20:36:56.959Z,1.53
2023-12-16T20:39:41.980Z,2.70
2023-12-16T20:42:09.734Z,3.30
2023-12-16T20:44:37.551Z,3.07
2023-12-16T20:47:06.805Z,3.53
2023-12-16T20:49:34.632Z,3.53
2023-12-16T20:52:03.690Z,2.97
2023-12-16T20:54:31.676Z,3.73
2023-12-16T20:56:59.444Z,2.97
2023-12-16T20:59:27.122Z,3.30
2023-12-16T21:01:56.769Z,4.00
2023-12-16T21:04:25.823Z,3.33
2023-12-16T21:06:53.874Z,3.00
2023-12-16T21:09:21.759Z,3.67
2023-12-16T21:11:49.504Z,3.13
2023-12-16T21:14:17.266Z,3.00
2023-12-16T21:16:45.602Z,3.40
2023-12-16T21:19:13.470Z,3.63
2023-12-16T21:21:44.311Z,3.70
2023-12-16T21:24:12.123Z,3.40
2023-12-16T21:26:42.260Z,3.67
2023-12-16T21:29:09.983Z,3.83
2023-12-16T21:31:37.957Z,3.50
2023-12-16T21:34:05.940Z,3.47
2023-12-16T21:36:33.783Z,4.43
2023-12-16T21:39:03.095Z,3.60
2023-12-16T21:41:30.823Z,3.87
2023-12-16T21:43:58.522Z,3.80
2023-12-16T21:46:26.249Z,5.03
2023-12-16T21:48:54.001Z,4.50
2023-12-16T21:51:22.512Z,4.17
2023-12-16T21:53:50.699Z,5.03
2023-12-16T21:56:22.407Z,3.87
2023-12-16T21:58:51.071Z,3.73
2023-12-16T22:01:20.585Z,3.50
2023-12-16T22:03:48.249Z,4.63
2023-12-16T22:06:16.149Z,4.47
2023-12-16T22:08:49.796Z,4.43
2023-12-16T22:11:24.867Z,3.77
2023-12-16T22:13:52.735Z,4.73
2023-12-16T22:16:20.869Z,3.90
2023-12-16T22:18:48.663Z,4.03
2023-12-16T22:21:17.321Z,4.00
2023-12-16T22:23:45.058Z,4.30
2023-12-16T22:26:12.853Z,5.33
2023-12-16T22:28:43.209Z,4.27
2023-12-16T22:31:12.240Z,4.87
2023-12-16T22:33:40.208Z,4.77
2023-12-16T22:36:08.558Z,3.80
2023-12-16T22:38:36.208Z,4.30
2023-12-16T22:41:03.950Z,4.37
2023-12-16T22:43:32.265Z,3.80
2023-12-16T22:46:01.336Z,3.43
2023-12-16T22:48:29.252Z,3.20
2023-12-16T22:50:58.057Z,3.60
2023-12-16T22:53:25.902Z,3.53
2023-12-16T22:55:53.563Z,3.10
2023-12-16T22:58:28.857Z,3.73
2023-12-16T23:01:06.095Z,3.13
2023-12-16T23:03:34.016Z,3.47
2023-12-16T23:06:01.849Z,3.40
2023-12-16T23:08:29.529Z,3.10
2023-12-16T23:10:57.281Z,3.23
2023-12-16T23:13:24.968Z,4.00
2023-12-16T23:15:52.692Z,2.77
2023-12-16T23:18:21.822Z,3.37
2023-12-16T23:20:49.882Z,3.17
2023-12-16T23:23:17.622Z,3.10
2023-12-16T23:25:45.881Z,3.40
2023-12-16T23:28:13.654Z,3.33
2023-12-16T23:30:41.406Z,3.30
2023-12-16T23:33:09.404Z,3.37
2023-12-16T23:35:38.560Z,2.50
2023-12-16T23:38:06.255Z,2.70
2023-12-16T23:40:33.939Z,4.07
2023-12-16T23:43:01.668Z,3.07
2023-12-16T23:45:29.413Z,2.83
2023-12-16T23:47:57.212Z,4.30
2023-12-16T23:50:25.026Z,3.03
2023-12-16T23:52:54.034Z,3.23
2023-12-16T23:55:21.718Z,3.30
2023-12-16T23:57:49.622Z,2.97
